createdAt,value
2022-11-24T00:29:29.572Z,0
2022-11-24T00:30:10.037Z,0
2022-11-24T00:30:50.555Z,0
2022-11-24T00:31:31.158Z,0
2022-11-24T00:32:11.381Z,0
2022-11-24T00:32:51.911Z,0
2022-11-24T00:33:32.318Z,0
2022-11-24T00:34:12.804Z,0
2022-11-24T00:34:53.302Z,0
2022-11-24T00:36:14.211Z,0
2022-11-24T00:43:39.533Z,0
2022-11-24T00:44:19.977Z,0
2022-11-24T00:45:00.809Z,0
2022-11-24T00:45:41.018Z,0
2022-11-24T00:46:21.478Z,0
2022-11-24T00:47:02.039Z,0
2022-11-24T00:47:42.356Z,0
2022-11-24T00:48:22.838Z,0
2022-11-24T00:49:03.319Z,0
2022-11-24T00:49:43.767Z,0
2022-11-24T00:50:24.254Z,0
2022-11-24T00:57:49.656Z,0
2022-11-24T00:58:30.121Z,0
2022-11-24T00:59:10.606Z,0
2022-11-24T00:59:51.058Z,0
2022-11-24T01:00:31.526Z,0
2022-11-24T01:01:12.049Z,0
2022-11-24T01:01:52.540Z,0
2022-11-24T01:02:32.990Z,0
2022-11-24T01:03:53.896Z,0
2022-11-24T01:04:34.584Z,0
2022-11-24T01:11:59.561Z,0
2022-11-24T01:12:40.014Z,0
2022-11-24T01:13:20.489Z,0
2022-11-24T01:14:01.010Z,0
2022-11-24T01:14:41.467Z,0
2022-11-24T01:15:22.008Z,0
2022-11-24T01:16:02.582Z,0
2022-11-24T01:16:42.947Z,0
2022-11-24T01:17:23.438Z,0
2022-11-24T01:18:03.904Z,0
2022-11-24T01:18:44.420Z,0
2022-11-24T01:26:09.727Z,0
2022-11-24T01:26:50.177Z,0
2022-11-24T01:27:30.743Z,0
2022-11-24T01:28:51.652Z,0
2022-11-24T01:29:32.194Z,0
2022-11-24T01:30:12.625Z,0
2022-11-24T01:30:53.114Z,0
2022-11-24T01:31:33.591Z,0
2022-11-24T01:32:14.044Z,0
2022-11-24T01:32:54.527Z,0
2022-11-24T01:40:19.712Z,0
2022-11-24T01:41:00.219Z,0
2022-11-24T01:41:40.666Z,0
2022-11-24T01:42:21.127Z,0
2022-11-24T01:43:01.605Z,0
2022-11-24T01:43:42.074Z,0
2022-11-24T01:44:22.580Z,0
2022-11-24T01:45:03.155Z,0
2022-11-24T01:45:43.669Z,0
2022-11-24T01:46:24.226Z,0
2022-11-24T01:47:04.612Z,0
2022-11-24T01:53:49.444Z,0
2022-11-24T01:54:30.000Z,0
2022-11-24T01:55:10.435Z,0
2022-11-24T01:55:50.909Z,0
2022-11-24T01:56:31.347Z,0
2022-11-24T01:57:11.827Z,0
2022-11-24T01:57:52.296Z,0
2022-11-24T01:59:13.200Z,0
2022-11-24T01:59:53.664Z,0
2022-11-24T02:00:34.154Z,0
2022-11-24T02:07:59.400Z,0
2022-11-24T02:08:39.865Z,0
2022-11-24T02:09:20.363Z,0
2022-11-24T02:10:00.817Z,0
2022-11-24T02:10:41.295Z,0
2022-11-24T02:11:21.773Z,0
2022-11-24T02:12:02.223Z,0
2022-11-24T02:12:42.741Z,0
2022-11-24T02:13:23.189Z,0
2022-11-24T02:14:03.669Z,0
2022-11-24T02:14:44.167Z,0
2022-11-24T02:15:24.626Z,0
2022-11-24T02:22:09.502Z,0
2022-11-24T02:22:49.984Z,0
2022-11-24T02:23:30.425Z,0
2022-11-24T02:24:10.881Z,0
2022-11-24T02:24:51.359Z,0
2022-11-24T02:25:31.882Z,0
2022-11-24T02:26:12.372Z,0
2022-11-24T02:26:52.838Z,0
2022-11-24T02:27:33.338Z,0
2022-11-24T02:28:13.803Z,0
2022-11-24T02:28:54.304Z,0
2022-11-24T02:36:19.561Z,0
2022-11-24T02:37:00.015Z,0
2022-11-24T02:37:40.426Z,0
2022-11-24T02:38:20.859Z,0
2022-11-24T02:39:01.387Z,0
2022-11-24T02:39:41.816Z,0
2022-11-24T02:40:22.299Z,0
2022-11-24T02:41:02.780Z,0
2022-11-24T02:42:23.785Z,0
2022-11-24T02:43:04.247Z,0
2022-11-24T02:50:29.496Z,0
2022-11-24T02:51:10.035Z,0
2022-11-24T02:51:50.476Z,0
2022-11-24T02:52:30.927Z,0
2022-11-24T02:53:11.433Z,0
2022-11-24T02:53:51.840Z,0
2022-11-24T02:54:32.762Z,0
2022-11-24T02:55:12.791Z,0
2022-11-24T02:55:53.262Z,0
2022-11-24T02:56:33.771Z,0
2022-11-24T02:57:14.285Z,0
2022-11-24T03:03:35.649Z,0
2022-11-24T03:04:16.115Z,0
2022-11-24T03:04:56.600Z,0
2022-11-24T03:05:37.005Z,0
2022-11-24T03:06:17.510Z,0
2022-11-24T03:06:58.051Z,0
2022-11-24T03:07:38.555Z,0
2022-11-24T03:08:18.963Z,0
2022-11-24T03:08:59.494Z,0
2022-11-24T03:09:40.006Z,0
2022-11-24T03:10:20.492Z,0
2022-11-24T03:17:45.501Z,0
2022-11-24T03:18:25.981Z,0
2022-11-24T03:19:06.484Z,0
2022-11-24T03:19:47.024Z,0
2022-11-24T03:20:27.438Z,0
2022-11-24T03:21:07.941Z,0
2022-11-24T03:21:48.405Z,0
2022-11-24T03:22:29.627Z,0
2022-11-24T03:26:14.059Z,0
2022-11-24T03:26:54.541Z,0
2022-11-24T03:27:34.972Z,0
2022-11-24T03:28:15.432Z,0
2022-11-24T03:28:55.933Z,0
2022-11-24T03:29:36.444Z,0
2022-11-24T03:30:16.856Z,0
2022-11-24T03:30:57.477Z,0
2022-11-24T03:31:37.897Z,0
2022-11-24T03:32:18.322Z,0
2022-11-24T03:32:58.813Z,0
2022-11-24T03:40:24.041Z,0
2022-11-24T03:41:04.527Z,0
2022-11-24T03:41:44.973Z,0
2022-11-24T03:42:25.459Z,0
2022-11-24T03:43:05.926Z,0
2022-11-24T03:43:46.405Z,0
2022-11-24T03:44:26.874Z,0
2022-11-24T03:45:47.867Z,0
2022-11-24T03:46:28.387Z,0
2022-11-24T03:47:08.862Z,0
2022-11-24T03:54:34.362Z,0
2022-11-24T03:55:14.608Z,0
2022-11-24T03:55:55.018Z,0
2022-11-24T03:56:35.486Z,0
2022-11-24T03:57:15.985Z,0
2022-11-24T03:57:56.457Z,0
2022-11-24T03:58:36.939Z,0
2022-11-24T03:59:17.422Z,0
2022-11-24T03:59:57.877Z,0
2022-11-24T04:00:38.366Z,0
2022-11-24T04:01:18.881Z,0
2022-11-24T04:08:44.012Z,0
2022-11-24T04:09:24.478Z,0
2022-11-24T04:10:04.996Z,0
2022-11-24T04:10:45.478Z,0
2022-11-24T04:11:25.971Z,0
2022-11-24T04:12:06.467Z,0
2022-11-24T04:12:46.941Z,0
2022-11-24T04:13:27.421Z,0
2022-11-24T04:14:13.305Z,0
2022-11-24T04:14:48.378Z,0
2022-11-24T04:15:28.899Z,0
2022-11-24T04:22:54.169Z,0
2022-11-24T04:23:34.695Z,0
2022-11-24T04:24:15.150Z,0
2022-11-24T04:24:55.618Z,0
2022-11-24T04:25:36.073Z,0
2022-11-24T04:26:16.577Z,0
2022-11-24T04:26:57.078Z,0
2022-11-24T04:27:37.488Z,0
2022-11-24T04:28:17.946Z,0
2022-11-24T04:28:58.449Z,0
2022-11-24T04:36:23.786Z,0
2022-11-24T04:37:04.260Z,0
2022-11-24T04:37:44.739Z,0
2022-11-24T04:39:19.339Z,0
2022-11-24T04:39:20.232Z,0
2022-11-24T04:39:46.072Z,0
2022-11-24T04:40:26.553Z,0
2022-11-24T04:41:07.015Z,0
2022-11-24T04:41:47.516Z,0
2022-11-24T04:42:27.961Z,0
2022-11-24T04:43:08.405Z,0
2022-11-24T04:43:48.934Z,0
2022-11-24T04:51:14.067Z,0
2022-11-24T04:52:01.365Z,0
2022-11-24T04:56:04.213Z,0
2022-11-24T04:56:44.644Z,0
2022-11-24T04:57:25.104Z,0
2022-11-24T04:58:05.559Z,0
2022-11-24T04:58:46.009Z,0
2022-11-24T04:59:26.503Z,0
2022-11-24T05:00:06.962Z,0
2022-11-24T05:00:47.456Z,0
2022-11-24T05:01:27.914Z,0
2022-11-24T05:02:08.472Z,0
2022-11-24T05:02:48.914Z,0
2022-11-24T05:10:14.071Z,0
2022-11-24T05:10:54.534Z,0
2022-11-24T05:11:35.017Z,0
2022-11-24T05:12:15.484Z,0
2022-11-24T05:12:55.908Z,0
2022-11-24T05:13:36.355Z,0
2022-11-24T05:14:16.816Z,0
2022-11-24T05:14:57.305Z,0
2022-11-24T05:15:37.801Z,0
2022-11-24T05:16:18.328Z,0
2022-11-24T05:16:58.844Z,0
2022-11-24T05:24:24.211Z,0
2022-11-24T05:25:04.746Z,0
2022-11-24T05:25:47.712Z,0
2022-11-24T05:26:25.674Z,0
2022-11-24T05:27:06.173Z,0
2022-11-24T05:27:46.713Z,0
2022-11-24T05:28:27.205Z,0
2022-11-24T05:29:07.737Z,0
2022-11-24T05:30:28.705Z,0
2022-11-24T05:31:09.228Z,0
2022-11-24T05:37:54.106Z,0
2022-11-24T05:38:34.586Z,0
2022-11-24T05:39:15.090Z,0
2022-11-24T05:39:55.573Z,0
2022-11-24T05:40:36.100Z,0
2022-11-24T05:41:16.694Z,0
2022-11-24T05:41:57.881Z,0
2022-11-24T05:42:42.059Z,0
2022-11-24T05:43:18.864Z,0
2022-11-24T05:49:24.015Z,0
2022-11-24T05:50:04.508Z,0
2022-11-24T05:50:45.047Z,0
2022-11-24T05:51:25.542Z,0
2022-11-24T05:52:06.047Z,0
2022-11-24T05:52:46.541Z,0
2022-11-24T05:53:27.153Z,0
2022-11-24T05:54:07.653Z,0
2022-11-24T05:54:48.125Z,0
2022-11-24T06:32:25.847Z,0
2022-11-24T06:34:17.443Z,0
2022-11-24T06:34:57.917Z,0
2022-11-24T06:35:38.484Z,0
2022-11-24T06:36:18.982Z,0
2022-11-24T06:36:59.527Z,0
2022-11-24T06:37:40.056Z,0
2022-11-24T06:39:01.024Z,0
2022-11-24T06:39:41.532Z,0
2022-11-24T06:46:27.060Z,4
2022-11-24T06:47:07.593Z,0
2022-11-24T06:47:48.115Z,4
2022-11-24T06:48:29.326Z,4
2022-11-24T06:49:09.824Z,4
2022-11-24T06:49:50.373Z,4
2022-11-24T06:50:33.657Z,4
2022-11-24T06:51:51.928Z,8
2022-11-24T06:57:56.667Z,16
2022-11-24T06:58:37.207Z,20
2022-11-24T06:59:17.709Z,20
2022-11-24T06:59:58.240Z,24
2022-11-24T07:00:38.810Z,28
2022-11-24T07:01:59.839Z,28
2022-11-24T07:02:45.588Z,36
2022-11-24T07:03:21.014Z,36
2022-11-24T07:04:01.391Z,40
2022-11-24T07:04:41.903Z,44
2022-11-24T07:10:07.287Z,68
2022-11-24T07:10:47.780Z,72
2022-11-24T07:11:28.320Z,72
2022-11-24T07:12:08.817Z,76
2022-11-24T07:12:49.312Z,80
2022-11-24T07:13:29.898Z,84
2022-11-24T07:14:10.528Z,84
2022-11-24T07:14:50.998Z,88
2022-11-24T07:15:32.241Z,92
2022-11-24T07:19:37.160Z,112
2022-11-24T07:20:18.431Z,112
2022-11-24T07:20:59.055Z,116
2022-11-24T07:21:39.566Z,120
2022-11-24T07:22:20.119Z,124
2022-11-24T07:23:00.797Z,128
2022-11-24T07:23:41.219Z,128
2022-11-24T07:24:21.843Z,124
2022-11-24T07:29:06.746Z,104
2022-11-24T07:29:47.322Z,104
2022-11-24T07:30:27.911Z,104
2022-11-24T07:31:08.401Z,100
2022-11-24T07:31:49.029Z,96
2022-11-24T07:32:29.476Z,108
2022-11-24T07:33:10.007Z,116
2022-11-24T07:33:51.386Z,128
2022-11-24T07:39:17.682Z,188
2022-11-24T07:39:58.883Z,196
2022-11-24T07:40:40.070Z,204
2022-11-24T07:41:20.993Z,204
2022-11-24T07:42:01.498Z,212
2022-11-24T07:45:30.841Z,216
2022-11-24T07:46:11.398Z,216
2022-11-24T07:52:40.950Z,208
2022-11-24T07:53:21.570Z,200
2022-11-24T07:56:51.192Z,296
2022-11-24T07:57:31.705Z,316
2022-11-24T08:01:12.119Z,472
2022-11-24T08:01:52.760Z,500
2022-11-24T08:02:33.982Z,472
2022-11-24T08:03:15.943Z,464
2022-11-24T08:10:06.652Z,500
2022-11-24T08:10:47.534Z,500
2022-11-24T08:11:29.928Z,488
2022-11-24T08:12:09.813Z,476
2022-11-24T08:16:56.213Z,336
2022-11-24T08:17:36.838Z,356
2022-11-24T08:18:18.724Z,380
2022-11-24T08:23:05.987Z,452
2022-11-24T08:27:38.309Z,540
2022-11-24T08:28:19.534Z,528
2022-11-24T08:29:00.605Z,512
2022-11-24T08:29:42.328Z,508
2022-11-24T08:30:23.550Z,520
2022-11-24T08:32:28.619Z,512
2022-11-24T08:33:09.849Z,536
2022-11-24T08:33:52.570Z,620
2022-11-24T08:35:57.768Z,556
2022-11-24T08:36:39.508Z,528
2022-11-24T08:37:20.649Z,512
2022-11-24T08:40:07.682Z,468
2022-11-24T08:40:50.748Z,468
2022-11-24T08:45:30.621Z,652
2022-11-24T08:46:08.467Z,728
2022-11-24T08:46:49.025Z,664
2022-11-24T08:47:29.732Z,652
2022-11-24T08:51:34.124Z,908
2022-11-24T08:52:14.685Z,1048
2022-11-24T08:52:55.410Z,988
2022-11-24T08:53:37.868Z,1060
2022-11-24T08:54:59.235Z,908
2022-11-24T08:59:04.151Z,1052
2022-11-24T08:59:45.334Z,1096
2022-11-24T09:00:25.621Z,1264
2022-11-24T09:01:06.313Z,1288
2022-11-24T09:02:27.663Z,1232
2022-11-24T09:03:08.181Z,1156
2022-11-24T09:03:50.896Z,1228
2022-11-24T09:09:10.783Z,1016
2022-11-24T09:09:56.149Z,1160
2022-11-24T09:10:37.904Z,1160
2022-11-24T09:11:19.205Z,1112
2022-11-24T09:18:42.740Z,980
2022-11-24T09:21:18.679Z,684
2022-11-24T09:21:59.570Z,640
2022-11-24T09:22:40.160Z,604
2022-11-24T09:23:20.779Z,612
2022-11-24T09:24:02.278Z,604
2022-11-24T09:27:29.513Z,868
2022-11-24T09:31:54.124Z,908
2022-11-24T09:33:49.245Z,956
2022-11-24T09:34:31.461Z,928
2022-11-24T09:35:12.703Z,904
2022-11-24T09:35:54.333Z,868
2022-11-24T09:36:43.070Z,864
2022-11-24T09:41:15.138Z,1212
2022-11-24T09:41:55.863Z,1228
2022-11-24T09:42:37.131Z,1248
2022-11-24T09:43:17.862Z,1224
2022-11-24T09:43:58.395Z,1208
2022-11-24T09:44:38.947Z,1172
2022-11-24T09:45:35.625Z,1236
2022-11-24T09:49:00.533Z,1144
2022-11-24T09:49:41.736Z,1212
2022-11-24T09:50:23.429Z,1256
2022-11-24T09:51:03.885Z,1196
2022-11-24T09:51:44.965Z,1072
2022-11-24T09:54:32.716Z,916
2022-11-24T09:55:14.284Z,888
2022-11-24T09:58:44.105Z,832
2022-11-24T09:59:25.032Z,832
2022-11-24T10:00:06.003Z,828
2022-11-24T10:00:49.623Z,828
2022-11-24T10:03:34.049Z,828
2022-11-24T10:04:14.630Z,824
2022-11-24T10:04:55.122Z,832
2022-11-24T10:05:35.776Z,828
2022-11-24T10:06:22.156Z,824
2022-11-24T10:07:03.419Z,824
2022-11-24T10:07:44.185Z,816
2022-11-24T10:09:45.518Z,828
2022-11-24T10:10:26.847Z,820
2022-11-24T10:11:07.214Z,828
2022-11-24T10:11:47.766Z,824
2022-11-24T10:16:32.400Z,828
2022-11-24T10:17:13.005Z,832
2022-11-24T10:17:53.729Z,844
2022-11-24T10:18:36.250Z,856
2022-11-24T10:19:17.032Z,840
2022-11-24T10:24:01.860Z,812
2022-11-24T10:24:42.558Z,816
2022-11-24T10:25:23.201Z,808
2022-11-24T10:26:03.981Z,808
2022-11-24T10:26:44.635Z,808
2022-11-24T10:27:25.368Z,804
2022-11-24T10:28:05.730Z,808
2022-11-24T10:29:26.926Z,804
2022-11-24T10:44:19.442Z,796
2022-11-24T10:45:00.725Z,796
2022-11-24T10:45:41.614Z,792
2022-11-24T10:46:22.503Z,792
2022-11-24T10:48:26.949Z,788
2022-11-24T10:49:11.328Z,788
2022-11-24T10:50:39.084Z,792
2022-11-24T10:51:19.688Z,792
2022-11-24T10:52:41.154Z,784
2022-11-24T10:56:07.344Z,784
2022-11-24T10:56:49.014Z,784
2022-11-24T10:59:19.238Z,788
2022-11-24T10:59:59.761Z,780
2022-11-24T11:00:40.458Z,784
2022-11-24T11:01:21.211Z,784
2022-11-24T11:07:42.018Z,772
2022-11-24T11:10:08.622Z,776
2022-11-24T11:12:43.156Z,772
2022-11-24T11:13:07.374Z,772
2022-11-24T11:13:48.041Z,768
2022-11-24T11:14:30.502Z,776
2022-11-24T11:15:10.925Z,768
2022-11-24T11:15:51.503Z,720
2022-11-24T11:19:00.834Z,768
2022-11-24T11:19:48.788Z,768
2022-11-24T11:20:21.758Z,764
2022-11-24T11:21:02.235Z,768
2022-11-24T11:21:42.991Z,768
2022-11-24T11:22:23.550Z,740
2022-11-24T11:23:44.673Z,760
2022-11-24T11:24:25.112Z,752
2022-11-24T11:31:17.066Z,752
2022-11-24T11:34:43.244Z,748
2022-11-24T11:35:23.847Z,748
2022-11-24T11:36:04.504Z,748
2022-11-24T11:39:31.398Z,748
2022-11-24T11:40:13.389Z,744
2022-11-24T11:44:44.338Z,752
2022-11-24T11:45:24.997Z,756
2022-11-24T11:46:05.626Z,752
2022-11-24T11:46:46.084Z,756
2022-11-24T11:47:26.546Z,760
2022-11-24T11:48:07.073Z,764
2022-11-24T11:48:47.651Z,760
2022-11-24T11:49:28.225Z,760
2022-11-24T11:50:08.750Z,760
2022-11-24T11:51:15.346Z,760
2022-11-24T12:32:54.238Z,708
2022-11-24T12:33:45.055Z,708
2022-11-24T12:34:22.445Z,708
2022-11-24T12:35:03.201Z,704
2022-11-24T12:35:45.349Z,700
2022-11-24T12:38:00.865Z,692
2022-11-24T12:38:42.048Z,696
2022-11-24T12:39:22.598Z,700
2022-11-24T12:40:03.162Z,696
2022-11-24T12:40:47.043Z,696
2022-11-24T12:41:40.917Z,700
2022-11-24T12:46:49.614Z,692
2022-11-24T12:47:30.152Z,688
2022-11-24T12:48:10.696Z,688
2022-11-24T12:48:51.209Z,688
2022-11-24T12:49:31.928Z,688
2022-11-24T12:50:12.253Z,688
2022-11-24T12:50:52.783Z,684
2022-11-24T12:51:33.279Z,688
2022-11-24T12:52:13.859Z,684
2022-11-24T12:52:58.745Z,680
2022-11-24T12:59:39.879Z,648
2022-11-24T13:00:20.445Z,640
2022-11-24T13:01:01.033Z,628
2022-11-24T13:01:41.629Z,624
2022-11-24T13:02:22.181Z,612
2022-11-24T13:03:02.934Z,600
2022-11-24T13:03:43.202Z,604
2022-11-24T13:04:23.823Z,600
2022-11-24T13:05:04.358Z,596
2022-11-24T13:09:42.361Z,580
2022-11-24T13:10:34.860Z,580
2022-11-24T13:11:04.221Z,580
2022-11-24T13:11:45.767Z,580
2022-11-24T13:12:26.423Z,580
2022-11-24T13:13:06.971Z,576
2022-11-24T13:22:01.379Z,548
2022-11-24T13:22:41.894Z,544
2022-11-24T13:23:22.527Z,544
2022-11-24T13:24:03.157Z,544
2022-11-24T13:26:35.322Z,548
2022-11-24T13:29:01.723Z,548
2022-11-24T13:29:32.842Z,544
2022-11-24T13:30:13.353Z,544
2022-11-24T13:33:28.482Z,532
2022-11-24T13:34:08.787Z,532
2022-11-24T13:38:24.747Z,528
2022-11-24T13:42:44.535Z,520
2022-11-24T13:43:24.598Z,520
2022-11-24T13:44:05.053Z,516
2022-11-24T13:44:45.699Z,516
2022-11-24T13:45:26.429Z,520
2022-11-24T13:46:07.168Z,520
2022-11-24T13:46:47.640Z,520
2022-11-24T13:47:28.170Z,520
2022-11-24T13:48:08.646Z,524
2022-11-24T13:53:33.747Z,508
2022-11-24T13:54:14.204Z,504
2022-11-24T13:54:54.681Z,504
2022-11-24T13:55:35.590Z,504
2022-11-24T13:56:16.056Z,508
2022-11-24T13:56:56.853Z,504
2022-11-24T13:57:37.523Z,508
2022-11-24T13:58:17.909Z,508
2022-11-24T13:59:39.009Z,504
2022-11-24T14:05:04.596Z,496
2022-11-24T14:05:45.071Z,500
2022-11-24T14:06:27.259Z,496
2022-11-24T14:11:14.061Z,484
2022-11-24T14:11:58.250Z,480
2022-11-24T14:12:41.678Z,472
2022-11-24T14:13:22.649Z,472
2022-11-24T14:14:06.193Z,476
2022-11-24T14:15:03.167Z,476
2022-11-24T14:21:03.591Z,460
2022-11-24T14:22:01.733Z,464
2022-11-24T14:23:50.662Z,428
2022-11-24T14:24:31.669Z,416
2022-11-24T14:36:39.269Z,432
2022-11-24T14:41:33.931Z,452
2022-11-24T14:42:14.950Z,452
2022-11-24T14:42:56.465Z,456
2022-11-24T14:43:37.588Z,456
2022-11-24T14:44:26.632Z,456
2022-11-24T14:45:50.153Z,472
2022-11-24T14:46:30.708Z,504
2022-11-24T14:47:11.773Z,532
2022-11-24T14:47:53.183Z,564
2022-11-24T14:48:34.204Z,596
2022-11-24T14:56:00.272Z,472
2022-11-24T14:58:12.895Z,428
2022-11-24T14:58:53.930Z,420
2022-11-24T14:59:34.595Z,376
2022-11-24T15:00:15.197Z,364
2022-11-24T15:00:55.783Z,408
2022-11-24T15:01:36.432Z,460
2022-11-24T15:02:17.527Z,492
2022-11-24T15:02:58.088Z,492
2022-11-24T15:07:03.851Z,420
2022-11-24T15:07:44.796Z,400
2022-11-24T15:08:25.276Z,372
2022-11-24T15:09:06.054Z,348
2022-11-24T15:09:47.070Z,312
2022-11-24T15:10:33.377Z,280
2022-11-24T15:12:34.193Z,208
2022-11-24T15:13:23.679Z,188
2022-11-24T15:14:03.826Z,172
2022-11-24T15:14:45.635Z,160
2022-11-24T15:15:27.713Z,152
2022-11-24T15:20:52.850Z,112
2022-11-24T15:21:33.409Z,108
2022-11-24T15:22:13.952Z,108
2022-11-24T15:22:54.582Z,104
2022-11-24T15:23:35.344Z,100
2022-11-24T15:24:15.758Z,92
2022-11-24T15:24:56.255Z,88
2022-11-24T15:25:36.796Z,88
2022-11-24T15:26:17.479Z,80
2022-11-24T15:32:22.850Z,48
2022-11-24T15:33:03.334Z,48
2022-11-24T15:33:43.783Z,44
2022-11-24T15:34:24.442Z,44
2022-11-24T15:35:04.994Z,40
2022-11-24T15:35:45.467Z,36
2022-11-24T15:36:26.750Z,36
2022-11-24T15:37:06.880Z,36
2022-11-24T15:37:47.475Z,28
2022-11-24T15:43:12.695Z,20
2022-11-24T15:43:53.355Z,16
2022-11-24T15:44:34.240Z,16
2022-11-24T15:45:14.396Z,16
2022-11-24T15:45:54.879Z,16
2022-11-24T15:46:35.650Z,12
2022-11-24T15:47:16.259Z,12
2022-11-24T15:51:58.100Z,8
2022-11-24T15:52:38.631Z,4
2022-11-24T15:53:19.150Z,4
2022-11-24T15:54:01.485Z,4
2022-11-24T15:54:41.302Z,4
2022-11-24T15:55:22.159Z,4
2022-11-24T15:58:46.570Z,0
2022-11-24T15:59:36.218Z,4
2022-11-24T16:00:23.383Z,4
2022-11-24T16:01:06.504Z,0
2022-11-24T16:01:47.825Z,0
2022-11-24T16:07:11.531Z,0
2022-11-24T16:07:52.295Z,0
2022-11-24T16:08:32.679Z,0
2022-11-24T16:09:13.440Z,0
2022-11-24T16:09:54.082Z,0
2022-11-24T16:10:34.790Z,0
2022-11-24T16:11:15.366Z,0
2022-11-24T16:11:56.004Z,0
2022-11-24T16:12:36.640Z,0
2022-11-24T16:18:41.764Z,0
2022-11-24T16:20:02.859Z,0
2022-11-24T16:20:44.318Z,0
2022-11-24T16:21:24.768Z,0
2022-11-24T16:22:05.306Z,0
2022-11-24T16:22:45.911Z,0
2022-11-24T16:23:26.477Z,0
2022-11-24T16:29:35.387Z,0
2022-11-24T16:30:12.179Z,0
2022-11-24T16:30:52.648Z,0
2022-11-24T16:31:33.268Z,0
2022-11-24T16:32:13.912Z,0
2022-11-24T16:32:54.615Z,0
2022-11-24T16:33:35.210Z,0
2022-11-24T16:34:15.690Z,0
2022-11-24T16:34:56.259Z,0
2022-11-24T16:35:36.784Z,0
2022-11-24T16:41:41.584Z,0
2022-11-24T16:42:22.107Z,0
2022-11-24T16:43:02.641Z,0
2022-11-24T16:43:43.261Z,0
2022-11-24T16:45:04.707Z,0
2022-11-24T16:45:45.744Z,0
2022-11-24T16:46:25.775Z,0
2022-11-24T16:47:06.259Z,0
2022-11-24T16:47:46.854Z,0
2022-11-24T16:52:31.941Z,0
2022-11-24T16:53:12.384Z,0
2022-11-24T16:53:52.991Z,0
2022-11-24T16:54:33.679Z,0
2022-11-24T16:55:14.024Z,0
2022-11-24T16:55:54.713Z,0
2022-11-24T16:56:35.353Z,0
2022-11-24T16:57:15.994Z,0
2022-11-24T16:57:57.470Z,0
2022-11-24T17:03:21.940Z,0
2022-11-24T17:04:02.468Z,0
2022-11-24T17:04:44.180Z,0
2022-11-24T17:05:25.415Z,0
2022-11-24T17:06:09.002Z,0
2022-11-24T17:08:51.670Z,0
2022-11-24T17:09:34.852Z,0
2022-11-24T17:10:12.690Z,0
2022-11-24T17:10:53.147Z,0
2022-11-24T17:11:33.744Z,0
2022-11-24T17:12:14.294Z,0
2022-11-24T17:12:55.124Z,0
2022-11-24T17:13:36.174Z,0
2022-11-24T17:14:16.714Z,0
2022-11-24T17:20:21.859Z,0
2022-11-24T17:21:06.175Z,0
2022-11-24T17:21:43.076Z,0
2022-11-24T17:22:23.609Z,0
2022-11-24T17:23:04.152Z,0
2022-11-24T17:23:44.795Z,0
2022-11-24T17:24:25.241Z,0
2022-11-24T17:25:05.968Z,0
2022-11-24T17:25:46.482Z,0
2022-11-24T17:31:51.706Z,0
2022-11-24T17:32:32.323Z,0
2022-11-24T17:33:12.932Z,0
2022-11-24T17:33:53.527Z,0
2022-11-24T17:34:34.503Z,0
2022-11-24T17:35:14.890Z,0
2022-11-24T17:35:55.442Z,0
2022-11-24T17:36:36.007Z,0
2022-11-24T17:42:01.627Z,0
2022-11-24T17:42:42.154Z,0
2022-11-24T17:43:22.914Z,0
2022-11-24T17:44:03.467Z,0
2022-11-24T17:44:44.020Z,0
2022-11-24T17:45:24.574Z,0
2022-11-24T17:46:05.248Z,0
2022-11-24T17:46:46.181Z,0
2022-11-24T17:50:51.652Z,0
2022-11-24T17:51:32.197Z,0
2022-11-24T17:52:12.637Z,0
2022-11-24T17:52:53.281Z,0
2022-11-24T17:53:33.792Z,0
2022-11-24T18:34:49.791Z,0
2022-11-24T18:35:30.167Z,0
2022-11-24T18:36:10.711Z,0
2022-11-24T18:36:51.272Z,0
2022-11-24T18:37:31.781Z,0
2022-11-24T18:38:12.225Z,0
2022-11-24T18:38:52.710Z,0
2022-11-24T18:39:33.280Z,0
2022-11-24T18:40:13.772Z,0
2022-11-24T18:40:54.272Z,0
2022-11-24T18:41:34.773Z,0
2022-11-24T18:48:19.609Z,0
2022-11-24T18:49:00.103Z,0
2022-11-24T18:49:40.624Z,0
2022-11-24T18:50:21.117Z,0
2022-11-24T18:51:01.633Z,0
2022-11-24T18:51:42.128Z,0
2022-11-24T18:52:22.640Z,0
2022-11-24T18:53:03.132Z,0
2022-11-24T18:53:43.620Z,0
2022-11-24T18:54:24.110Z,0
2022-11-24T18:55:04.630Z,0
2022-11-24T19:01:49.817Z,0
2022-11-24T19:02:30.310Z,0
2022-11-24T19:03:10.734Z,0
2022-11-24T19:03:51.244Z,0
2022-11-24T19:04:31.762Z,0
2022-11-24T19:05:12.271Z,0
2022-11-24T19:05:52.775Z,0
2022-11-24T19:06:33.267Z,0
2022-11-24T19:07:13.783Z,0
2022-11-24T19:07:54.297Z,0
2022-11-24T19:08:34.752Z,0
2022-11-24T19:15:19.789Z,0
2022-11-24T19:16:00.289Z,0
2022-11-24T19:16:40.889Z,0
2022-11-24T19:17:21.299Z,0
2022-11-24T19:18:01.822Z,0
2022-11-24T19:18:42.322Z,0
2022-11-24T19:19:22.836Z,0
2022-11-24T19:20:03.341Z,0
2022-11-24T19:20:43.804Z,0
2022-11-24T19:22:04.777Z,0
2022-11-24T19:28:49.850Z,0
2022-11-24T19:29:30.352Z,0
2022-11-24T19:30:10.850Z,0
2022-11-24T19:30:51.350Z,0
2022-11-24T19:31:31.928Z,0
2022-11-24T19:32:12.445Z,0
2022-11-24T19:32:52.881Z,0
2022-11-24T19:33:33.396Z,0
2022-11-24T19:34:13.907Z,0
2022-11-24T19:34:54.411Z,0
2022-11-24T19:42:19.878Z,0
2022-11-24T19:43:00.392Z,0
2022-11-24T19:43:40.883Z,0
2022-11-24T19:44:21.378Z,0
2022-11-24T19:45:01.874Z,0
2022-11-24T19:45:42.417Z,0
2022-11-24T19:46:22.889Z,0
2022-11-24T19:47:03.364Z,0
2022-11-24T19:47:43.889Z,0
2022-11-24T19:48:24.338Z,0
2022-11-24T19:55:49.741Z,0
2022-11-24T19:57:10.722Z,0
2022-11-24T19:57:51.205Z,0
2022-11-24T19:58:31.698Z,0
2022-11-24T19:59:12.158Z,0
2022-11-24T19:59:52.724Z,0
2022-11-24T20:00:33.207Z,0
2022-11-24T20:01:13.832Z,0
2022-11-24T20:01:54.332Z,0
2022-11-24T20:02:34.786Z,0
2022-11-24T20:09:19.674Z,0
2022-11-24T20:10:04.479Z,0
2022-11-24T20:10:40.699Z,0
2022-11-24T20:11:21.216Z,0
2022-11-24T20:12:01.675Z,0
2022-11-24T20:12:42.186Z,0
2022-11-24T20:13:22.669Z,0
2022-11-24T20:14:03.158Z,0
2022-11-24T20:14:43.672Z,0
2022-11-24T20:15:24.209Z,0
2022-11-24T20:16:04.694Z,0
2022-11-24T20:22:49.668Z,0
2022-11-24T20:23:30.180Z,0
2022-11-24T20:24:10.686Z,0
2022-11-24T20:24:51.170Z,0
2022-11-24T20:27:09.530Z,0
2022-11-24T20:27:50.030Z,0
2022-11-24T20:28:30.537Z,0
2022-11-24T20:29:11.049Z,0
2022-11-24T20:29:51.544Z,0
2022-11-24T20:30:32.024Z,0
2022-11-24T20:31:12.585Z,0
2022-11-24T20:32:33.484Z,0
2022-11-24T20:33:14.042Z,0
2022-11-24T20:39:58.931Z,0
2022-11-24T20:40:39.400Z,0
2022-11-24T20:41:19.908Z,0
2022-11-24T20:42:00.383Z,0
2022-11-24T20:42:40.891Z,0
2022-11-24T20:43:21.398Z,0
2022-11-24T20:44:01.891Z,0
2022-11-24T20:44:42.386Z,0
2022-11-24T20:45:22.905Z,0
2022-11-24T20:46:03.349Z,0
2022-11-24T20:46:43.805Z,0
2022-11-24T20:54:09.270Z,0
2022-11-24T20:54:49.723Z,0
2022-11-24T20:55:30.222Z,0
2022-11-24T20:56:10.693Z,0
2022-11-24T20:56:51.208Z,0
2022-11-24T20:57:31.708Z,0
2022-11-24T20:58:12.182Z,0
2022-11-24T20:58:52.708Z,0
2022-11-24T21:00:13.648Z,0
2022-11-24T21:00:54.165Z,0
2022-11-24T21:07:39.032Z,0
2022-11-24T21:08:19.444Z,0
2022-11-24T21:09:03.608Z,0
2022-11-24T21:09:40.420Z,0
2022-11-24T21:10:20.899Z,0
2022-11-24T21:11:01.416Z,0
2022-11-24T21:11:41.849Z,0
2022-11-24T21:14:56.158Z,0
2022-11-24T21:15:38.271Z,0
2022-11-24T21:16:18.801Z,0
2022-11-24T21:16:59.272Z,0
2022-11-24T21:17:39.757Z,0
2022-11-24T21:18:20.255Z,0
2022-11-24T21:19:00.706Z,0
2022-11-24T21:19:41.196Z,0
2022-11-24T21:20:21.670Z,0
2022-11-24T21:21:02.192Z,0
2022-11-24T21:21:42.876Z,0
2022-11-24T21:22:23.126Z,0
2022-11-24T21:23:03.565Z,0
2022-11-24T21:29:48.525Z,0
2022-11-24T21:30:28.979Z,0
2022-11-24T21:31:09.614Z,0
2022-11-24T21:31:50.078Z,0
2022-11-24T21:32:30.469Z,0
2022-11-24T21:33:10.896Z,0
2022-11-24T21:33:51.392Z,0
2022-11-24T21:34:31.899Z,0
2022-11-24T21:35:12.345Z,0
2022-11-24T21:35:52.851Z,0
2022-11-24T21:36:33.340Z,0
2022-11-24T21:43:58.666Z,0
2022-11-24T21:44:39.161Z,0
2022-11-24T21:45:19.639Z,0
2022-11-24T21:46:00.222Z,0
2022-11-24T21:46:44.902Z,0
2022-11-24T21:48:01.606Z,0
2022-11-24T21:48:42.105Z,0
2022-11-24T21:49:22.612Z,0
2022-11-24T21:50:03.077Z,0
2022-11-24T21:50:43.573Z,0
2022-11-24T21:57:28.424Z,0
2022-11-24T21:58:08.972Z,0
2022-11-24T21:58:49.427Z,0
2022-11-24T21:59:29.912Z,0
2022-11-24T22:00:10.392Z,0
2022-11-24T22:00:50.892Z,0
2022-11-24T22:01:31.425Z,0
2022-11-24T22:02:13.249Z,0
2022-11-24T22:02:52.424Z,0